sensor_id;sensor_type;location;lat;lon;timestamp;pressure;altitude;pressure_sealevel;temperature;humidity
65054;BME280;51639;47.828;35.038;2023-06-14T00:12:47;99595.91;;;24.14;100.00
65054;BME280;51639;47.828;35.038;2023-06-14T00:27:49;99431.38;;;23.36;100.00
65054;BME280;51639;47.828;35.038;2023-06-14T00:42:52;99332.16;;;22.78;100.00
65054;BME280;51639;47.828;35.038;2023-06-14T00:57:55;99295.22;;;22.95;100.00
65054;BME280;51639;47.828;35.038;2023-06-14T01:13:21;99295.81;;;23.25;100.00
65054;BME280;51639;47.828;35.038;2023-06-14T01:28:26;99268.16;;;22.88;100.00
65054;BME280;51639;47.828;35.038;2023-06-14T01:43:34;99277.88;;;23.13;100.00
65054;BME280;51639;47.828;35.038;2023-06-14T01:58:36;99311.81;;;22.95;100.00
65054;BME280;51639;47.828;35.038;2023-06-14T02:13:38;99300.91;;;22.84;100.00
65054;BME280;51639;47.828;35.038;2023-06-14T02:28:40;99317.59;;;22.72;100.00
65054;BME280;51639;47.828;35.038;2023-06-14T02:43:43;99333.81;;;22.87;100.00
65054;BME280;51639;47.828;35.038;2023-06-14T02:58:45;99344.59;;;22.91;100.00
65054;BME280;51639;47.828;35.038;2023-06-14T03:13:47;99351.59;;;22.92;100.00
65054;BME280;51639;47.828;35.038;2023-06-14T03:28:49;99351.03;;;22.74;100.00
65054;BME280;51639;47.828;35.038;2023-06-14T03:43:51;99357.53;;;22.77;100.00
65054;BME280;51639;47.828;35.038;2023-06-14T03:58:53;99369.59;;;23.04;100.00
65054;BME280;51639;47.828;35.038;2023-06-14T04:13:55;99342.00;;;22.50;100.00
65054;BME280;51639;47.828;35.038;2023-06-14T04:28:58;99339.41;;;22.57;100.00
65054;BME280;51639;47.828;35.038;2023-06-14T04:44:03;99334.63;;;22.58;100.00
65054;BME280;51639;47.828;35.038;2023-06-14T04:59:05;99325.00;;;22.89;100.00
65054;BME280;51639;47.828;35.038;2023-06-14T05:14:08;99344.31;;;23.13;100.00
65054;BME280;51639;47.828;35.038;2023-06-14T05:29:10;99379.47;;;23.18;100.00
65054;BME280;51639;47.828;35.038;2023-06-14T05:44:12;99383.03;;;23.56;100.00
65054;BME280;51639;47.828;35.038;2023-06-14T05:59:14;99429.31;;;23.80;100.00
65054;BME280;51639;47.828;35.038;2023-06-14T06:14:16;99432.56;;;24.48;100.00
65054;BME280;51639;47.828;35.038;2023-06-14T06:29:18;99464.16;;;25.03;100.00
65054;BME280;51639;47.828;35.038;2023-06-14T06:44:20;99532.91;;;26.58;100.00
65054;BME280;51639;47.828;35.038;2023-06-14T06:59:22;99573.44;;;27.29;100.00
65054;BME280;51639;47.828;35.038;2023-06-14T07:14:24;99551.09;;;26.79;100.00
65054;BME280;51639;47.828;35.038;2023-06-14T07:29:26;99556.66;;;26.38;100.00
65054;BME280;51639;47.828;35.038;2023-06-14T07:44:29;99561.38;;;26.84;100.00
65054;BME280;51639;47.828;35.038;2023-06-14T07:59:33;99572.06;;;27.50;100.00
65054;BME280;51639;47.828;35.038;2023-06-14T08:14:35;99647.91;;;28.13;100.00
65054;BME280;51639;47.828;35.038;2023-06-14T08:29:37;99653.78;;;28.31;100.00
65054;BME280;51639;47.828;35.038;2023-06-14T08:44:42;99614.50;;;28.21;100.00
65054;BME280;51639;47.828;35.038;2023-06-14T08:59:47;99604.06;;;28.22;100.00
65054;BME280;51639;47.828;35.038;2023-06-14T09:14:54;99606.84;;;27.78;100.00
65054;BME280;51639;47.828;35.038;2023-06-14T09:29:56;99583.03;;;27.77;100.00
65054;BME280;51639;47.828;35.038;2023-06-14T09:44:59;99601.72;;;27.40;100.00
65054;BME280;51639;47.828;35.038;2023-06-14T10:00:03;99572.47;;;27.55;100.00
65054;BME280;51639;47.828;35.038;2023-06-14T10:15:19;99596.97;;;27.77;100.00
65054;BME280;51639;47.828;35.038;2023-06-14T10:30:25;99593.53;;;27.99;100.00
65054;BME280;51639;47.828;35.038;2023-06-14T10:45:27;99594.06;;;27.90;100.00
65054;BME280;51639;47.828;35.038;2023-06-14T11:00:32;99595.38;;;28.33;100.00
65054;BME280;51639;47.828;35.038;2023-06-14T11:15:44;99610.84;;;28.49;100.00
65054;BME280;51639;47.828;35.038;2023-06-14T11:30:46;99608.59;;;28.40;100.00
65054;BME280;51639;47.828;35.038;2023-06-14T11:45:48;99622.84;;;28.80;100.00
65054;BME280;51639;47.828;35.038;2023-06-14T12:01:09;99590.47;;;29.00;100.00
65054;BME280;51639;47.828;35.038;2023-06-14T12:16:11;99603.13;;;28.85;100.00
65054;BME280;51639;47.828;35.038;2023-06-14T12:31:15;99610.22;;;29.25;100.00
65054;BME280;51639;47.828;35.038;2023-06-14T12:46:18;99588.59;;;29.40;100.00
65054;BME280;51639;47.828;35.038;2023-06-14T13:01:20;99595.78;;;30.29;100.00
65054;BME280;51639;47.828;35.038;2023-06-14T13:16:22;99609.06;;;30.53;100.00
65054;BME280;51639;47.828;35.038;2023-06-14T13:31:25;99608.63;;;29.77;100.00
65054;BME280;51639;47.828;35.038;2023-06-14T13:46:27;99595.28;;;29.07;100.00
65054;BME280;51639;47.828;35.038;2023-06-14T14:01:29;99601.75;;;28.48;100.00
65054;BME280;51639;47.828;35.038;2023-06-14T14:16:32;99558.56;;;28.65;100.00
65054;BME280;51639;47.828;35.038;2023-06-14T14:31:34;99564.69;;;28.48;100.00
65054;BME280;51639;47.828;35.038;2023-06-14T14:46:36;99560.06;;;28.58;100.00
65054;BME280;51639;47.828;35.038;2023-06-14T15:01:39;99546.47;;;28.47;100.00
65054;BME280;51639;47.828;35.038;2023-06-14T15:16:42;99552.25;;;28.64;100.00
65054;BME280;51639;47.828;35.038;2023-06-14T15:31:44;99571.25;;;28.73;100.00
65054;BME280;51639;47.828;35.038;2023-06-14T15:46:46;99681.53;;;28.88;100.00
65054;BME280;51639;47.828;35.038;2023-06-14T16:01:52;99576.41;;;28.46;100.00
65054;BME280;51639;47.828;35.038;2023-06-14T16:16:54;99616.38;;;28.26;100.00
65054;BME280;51639;47.828;35.038;2023-06-14T16:31:56;99706.09;;;28.38;100.00
65054;BME280;51639;47.828;35.038;2023-06-14T16:46:58;99631.09;;;27.98;100.00
65054;BME280;51639;47.828;35.038;2023-06-14T17:02:03;99627.31;;;27.88;100.00
65054;BME280;51639;47.828;35.038;2023-06-14T17:17:07;99642.81;;;27.61;100.00
65054;BME280;51639;47.828;35.038;2023-06-14T17:32:09;99635.56;;;27.44;100.00
65054;BME280;51639;47.828;35.038;2023-06-14T17:47:11;99660.28;;;27.20;100.00
65054;BME280;51639;47.828;35.038;2023-06-14T18:02:31;99666.59;;;26.99;100.00
65054;BME280;51639;47.828;35.038;2023-06-14T18:17:35;99660.06;;;26.63;100.00
65054;BME280;51639;47.828;35.038;2023-06-14T18:32:37;99681.41;;;26.47;100.00
65054;BME280;51639;47.828;35.038;2023-06-14T18:47:40;99655.16;;;26.56;100.00
65054;BME280;51639;47.828;35.038;2023-06-14T19:02:42;99662.81;;;26.42;100.00
65054;BME280;51639;47.828;35.038;2023-06-14T19:17:57;99652.97;;;26.41;100.00
65054;BME280;51639;47.828;35.038;2023-06-14T19:32:59;99647.22;;;26.12;100.00
65054;BME280;51639;47.828;35.038;2023-06-14T19:48:02;99645.72;;;26.11;100.00
65054;BME280;51639;47.828;35.038;2023-06-14T20:03:20;99639.09;;;25.88;100.00
65054;BME280;51639;47.828;35.038;2023-06-14T20:18:23;99645.63;;;25.77;100.00
65054;BME280;51639;47.828;35.038;2023-06-14T20:33:25;99644.41;;;25.46;100.00
65054;BME280;51639;47.828;35.038;2023-06-14T20:48:27;99619.19;;;25.44;100.00
65054;BME280;51639;47.828;35.038;2023-06-14T21:03:30;99610.75;;;25.05;100.00
65054;BME280;51639;47.828;35.038;2023-06-14T21:18:32;99599.22;;;24.82;100.00
65054;BME280;51639;47.828;35.038;2023-06-14T21:33:34;99604.66;;;24.74;100.00
65054;BME280;51639;47.828;35.038;2023-06-14T21:48:36;99587.72;;;24.59;100.00
65054;BME280;51639;47.828;35.038;2023-06-14T22:03:39;99604.69;;;24.37;100.00
65054;BME280;51639;47.828;35.038;2023-06-14T22:18:41;99596.78;;;24.28;100.00
65054;BME280;51639;47.828;35.038;2023-06-14T22:33:43;99586.81;;;23.95;100.00
65054;BME280;51639;47.828;35.038;2023-06-14T22:48:45;99580.34;;;23.68;100.00
65054;BME280;51639;47.828;35.038;2023-06-14T23:03:48;99579.94;;;23.34;100.00
65054;BME280;51639;47.828;35.038;2023-06-14T23:18:50;99583.91;;;23.14;100.00
65054;BME280;51639;47.828;35.038;2023-06-14T23:33:53;99594.81;;;23.01;100.00
65054;BME280;51639;47.828;35.038;2023-06-14T23:48:57;99592.78;;;23.07;100.00
